sensor_id;sensor_type;location;lat;lon;timestamp;P1;durP1;ratioP1;P2;durP2;ratioP2
71360;SDS011;59166;48.908;1.870;2023-06-14T03:29:18;15.27;;;8.70;;
71360;SDS011;59166;48.908;1.870;2023-06-14T03:34:19;14.18;;;8.32;;
71360;SDS011;59166;48.908;1.870;2023-06-14T03:39:20;15.98;;;8.63;;
71360;SDS011;59166;48.908;1.870;2023-06-14T03:44:23;15.77;;;8.70;;
71360;SDS011;59166;48.908;1.870;2023-06-14T03:49:26;16.25;;;8.85;;
71360;SDS011;59166;48.908;1.870;2023-06-14T03:54:27;14.75;;;8.70;;
71360;SDS011;59166;48.908;1.870;2023-06-14T03:59:29;14.37;;;8.03;;
71360;SDS011;59166;48.908;1.870;2023-06-14T04:04:30;14.05;;;8.10;;
71360;SDS011;59166;48.908;1.870;2023-06-14T04:09:31;15.70;;;8.70;;
71360;SDS011;59166;48.908;1.870;2023-06-14T04:14:33;16.08;;;8.35;;
71360;SDS011;59166;48.908;1.870;2023-06-14T04:19:34;15.68;;;8.70;;
71360;SDS011;59166;48.908;1.870;2023-06-14T04:24:35;13.63;;;8.13;;
71360;SDS011;59166;48.908;1.870;2023-06-14T04:29:38;16.50;;;8.20;;
71360;SDS011;59166;48.908;1.870;2023-06-14T04:34:38;16.03;;;8.60;;
71360;SDS011;59166;48.908;1.870;2023-06-14T04:39:42;14.32;;;8.30;;
71360;SDS011;59166;48.908;1.870;2023-06-14T04:44:44;14.75;;;8.73;;
71360;SDS011;59166;48.908;1.870;2023-06-14T04:49:45;14.47;;;7.97;;
71360;SDS011;59166;48.908;1.870;2023-06-14T04:54:46;15.90;;;8.20;;
71360;SDS011;59166;48.908;1.870;2023-06-14T04:59:48;13.23;;;8.30;;
71360;SDS011;59166;48.908;1.870;2023-06-14T05:04:49;15.03;;;8.53;;
71360;SDS011;59166;48.908;1.870;2023-06-14T05:09:50;13.63;;;8.10;;
71360;SDS011;59166;48.908;1.870;2023-06-14T05:14:53;13.65;;;8.60;;
71360;SDS011;59166;48.908;1.870;2023-06-14T05:19:54;15.00;;;7.97;;
71360;SDS011;59166;48.908;1.870;2023-06-14T05:24:55;12.82;;;8.10;;
71360;SDS011;59166;48.908;1.870;2023-06-14T05:29:57;12.98;;;7.82;;
71360;SDS011;59166;48.908;1.870;2023-06-14T05:34:58;13.73;;;8.13;;
71360;SDS011;59166;48.908;1.870;2023-06-14T05:39:59;12.90;;;7.57;;
71360;SDS011;59166;48.908;1.870;2023-06-14T05:45:01;13.77;;;7.60;;
71360;SDS011;59166;48.908;1.870;2023-06-14T05:50:02;14.90;;;8.40;;
71360;SDS011;59166;48.908;1.870;2023-06-14T05:55:03;13.73;;;8.23;;
71360;SDS011;59166;48.908;1.870;2023-06-14T06:00:07;13.93;;;8.20;;
71360;SDS011;59166;48.908;1.870;2023-06-14T06:05:09;16.02;;;8.02;;
71360;SDS011;59166;48.908;1.870;2023-06-14T06:10:10;15.07;;;8.05;;
71360;SDS011;59166;48.908;1.870;2023-06-14T06:15:12;14.17;;;7.77;;
71360;SDS011;59166;48.908;1.870;2023-06-14T06:20:14;15.25;;;8.00;;
71360;SDS011;59166;48.908;1.870;2023-06-14T06:25:14;14.88;;;8.10;;
71360;SDS011;59166;48.908;1.870;2023-06-14T06:30:17;13.90;;;8.03;;
71360;SDS011;59166;48.908;1.870;2023-06-14T06:35:18;16.73;;;8.65;;
71360;SDS011;59166;48.908;1.870;2023-06-14T06:40:19;13.30;;;8.30;;
71360;SDS011;59166;48.908;1.870;2023-06-14T06:45:21;13.50;;;8.52;;
71360;SDS011;59166;48.908;1.870;2023-06-14T06:50:22;17.17;;;8.60;;
71360;SDS011;59166;48.908;1.870;2023-06-14T06:55:23;15.07;;;8.37;;
71360;SDS011;59166;48.908;1.870;2023-06-14T07:00:25;18.27;;;7.95;;
71360;SDS011;59166;48.908;1.870;2023-06-14T07:05:26;13.07;;;8.47;;
71360;SDS011;59166;48.908;1.870;2023-06-14T07:10:27;13.10;;;8.05;;
71360;SDS011;59166;48.908;1.870;2023-06-14T07:15:29;12.40;;;7.63;;
71360;SDS011;59166;48.908;1.870;2023-06-14T07:20:30;12.98;;;7.38;;
71360;SDS011;59166;48.908;1.870;2023-06-14T07:25:31;14.27;;;7.13;;
71360;SDS011;59166;48.908;1.870;2023-06-14T07:30:33;13.80;;;7.05;;
71360;SDS011;59166;48.908;1.870;2023-06-14T07:35:34;13.90;;;7.43;;
71360;SDS011;59166;48.908;1.870;2023-06-14T07:40:35;11.27;;;6.90;;
71360;SDS011;59166;48.908;1.870;2023-06-14T07:45:37;20.98;;;8.07;;
71360;SDS011;59166;48.908;1.870;2023-06-14T07:50:38;12.40;;;6.80;;
71360;SDS011;59166;48.908;1.870;2023-06-14T07:55:39;13.50;;;7.47;;
71360;SDS011;59166;48.908;1.870;2023-06-14T08:00:41;12.05;;;6.45;;
71360;SDS011;59166;48.908;1.870;2023-06-14T08:05:42;13.48;;;7.03;;
71360;SDS011;59166;48.908;1.870;2023-06-14T08:10:43;14.73;;;6.93;;
71360;SDS011;59166;48.908;1.870;2023-06-14T08:15:46;11.80;;;6.70;;
71360;SDS011;59166;48.908;1.870;2023-06-14T08:20:47;14.73;;;6.65;;
71360;SDS011;59166;48.908;1.870;2023-06-14T08:25:48;14.63;;;6.40;;
71360;SDS011;59166;48.908;1.870;2023-06-14T08:30:50;13.55;;;6.15;;
71360;SDS011;59166;48.908;1.870;2023-06-14T08:35:51;13.13;;;6.50;;
71360;SDS011;59166;48.908;1.870;2023-06-14T08:40:52;12.13;;;6.47;;
71360;SDS011;59166;48.908;1.870;2023-06-14T08:46:00;13.82;;;6.22;;
71360;SDS011;59166;48.908;1.870;2023-06-14T08:51:03;11.10;;;5.73;;
71360;SDS011;59166;48.908;1.870;2023-06-14T08:56:05;11.80;;;6.30;;
71360;SDS011;59166;48.908;1.870;2023-06-14T09:01:07;14.13;;;5.90;;
71360;SDS011;59166;48.908;1.870;2023-06-14T09:06:09;11.47;;;6.20;;
71360;SDS011;59166;48.908;1.870;2023-06-14T09:11:10;12.50;;;6.00;;
71360;SDS011;59166;48.908;1.870;2023-06-14T09:16:13;10.10;;;5.57;;
71360;SDS011;59166;48.908;1.870;2023-06-14T09:21:14;11.10;;;5.72;;
71360;SDS011;59166;48.908;1.870;2023-06-14T09:26:18;11.90;;;5.90;;
71360;SDS011;59166;48.908;1.870;2023-06-14T09:31:21;10.65;;;5.50;;
71360;SDS011;59166;48.908;1.870;2023-06-14T09:36:22;11.18;;;5.65;;
71360;SDS011;59166;48.908;1.870;2023-06-14T09:41:30;9.43;;;5.70;;
71360;SDS011;59166;48.908;1.870;2023-06-14T09:46:33;12.15;;;5.70;;
71360;SDS011;59166;48.908;1.870;2023-06-14T09:51:35;10.07;;;5.82;;
71360;SDS011;59166;48.908;1.870;2023-06-14T09:56:44;13.30;;;5.67;;
71360;SDS011;59166;48.908;1.870;2023-06-14T10:01:48;9.70;;;6.00;;
71360;SDS011;59166;48.908;1.870;2023-06-14T10:06:50;9.23;;;5.68;;
71360;SDS011;59166;48.908;1.870;2023-06-14T10:11:52;10.10;;;6.32;;
71360;SDS011;59166;48.908;1.870;2023-06-14T10:16:56;10.77;;;6.30;;
71360;SDS011;59166;48.908;1.870;2023-06-14T10:22:04;17.23;;;6.00;;
71360;SDS011;59166;48.908;1.870;2023-06-14T10:27:10;12.25;;;6.50;;
71360;SDS011;59166;48.908;1.870;2023-06-14T10:32:15;14.40;;;5.83;;
71360;SDS011;59166;48.908;1.870;2023-06-14T10:37:16;10.93;;;6.05;;
71360;SDS011;59166;48.908;1.870;2023-06-14T10:42:17;10.73;;;6.20;;
71360;SDS011;59166;48.908;1.870;2023-06-14T10:47:23;11.93;;;6.23;;
71360;SDS011;59166;48.908;1.870;2023-06-14T10:52:26;11.00;;;6.13;;
71360;SDS011;59166;48.908;1.870;2023-06-14T10:57:27;10.07;;;5.90;;
71360;SDS011;59166;48.908;1.870;2023-06-14T11:02:49;10.53;;;5.80;;
71360;SDS011;59166;48.908;1.870;2023-06-14T11:08:04;12.38;;;6.18;;
71360;SDS011;59166;48.908;1.870;2023-06-14T11:13:18;10.63;;;6.18;;
71360;SDS011;59166;48.908;1.870;2023-06-14T11:18:21;11.57;;;6.40;;
71360;SDS011;59166;48.908;1.870;2023-06-14T11:23:22;11.20;;;6.15;;
71360;SDS011;59166;48.908;1.870;2023-06-14T11:28:23;10.07;;;6.30;;
71360;SDS011;59166;48.908;1.870;2023-06-14T11:33:25;10.45;;;5.95;;
71360;SDS011;59166;48.908;1.870;2023-06-14T11:38:26;10.85;;;6.10;;
71360;SDS011;59166;48.908;1.870;2023-06-14T11:43:27;11.10;;;6.20;;
71360;SDS011;59166;48.908;1.870;2023-06-14T11:48:39;11.10;;;6.13;;
71360;SDS011;59166;48.908;1.870;2023-06-14T11:53:42;9.95;;;5.95;;
71360;SDS011;59166;48.908;1.870;2023-06-14T11:58:43;14.93;;;5.73;;
71360;SDS011;59166;48.908;1.870;2023-06-14T12:03:49;9.98;;;5.85;;
71360;SDS011;59166;48.908;1.870;2023-06-14T12:08:50;11.65;;;5.93;;
71360;SDS011;59166;48.908;1.870;2023-06-14T12:13:51;10.33;;;5.80;;
71360;SDS011;59166;48.908;1.870;2023-06-14T12:18:54;9.80;;;5.60;;
71360;SDS011;59166;48.908;1.870;2023-06-14T12:23:55;10.73;;;5.93;;
71360;SDS011;59166;48.908;1.870;2023-06-14T12:28:56;10.43;;;5.70;;
71360;SDS011;59166;48.908;1.870;2023-06-14T12:33:58;11.55;;;5.95;;
71360;SDS011;59166;48.908;1.870;2023-06-14T12:38:59;11.27;;;6.03;;
71360;SDS011;59166;48.908;1.870;2023-06-14T12:44:00;11.67;;;6.17;;
71360;SDS011;59166;48.908;1.870;2023-06-14T12:49:02;9.35;;;5.82;;
71360;SDS011;59166;48.908;1.870;2023-06-14T12:54:03;12.77;;;6.07;;
71360;SDS011;59166;48.908;1.870;2023-06-14T12:59:04;10.20;;;5.90;;
71360;SDS011;59166;48.908;1.870;2023-06-14T13:04:07;10.27;;;5.90;;
71360;SDS011;59166;48.908;1.870;2023-06-14T13:09:08;10.50;;;6.03;;
71360;SDS011;59166;48.908;1.870;2023-06-14T13:14:08;12.13;;;6.20;;
71360;SDS011;59166;48.908;1.870;2023-06-14T13:19:11;10.27;;;6.10;;
71360;SDS011;59166;48.908;1.870;2023-06-14T13:24:12;9.88;;;6.18;;
71360;SDS011;59166;48.908;1.870;2023-06-14T13:29:13;12.52;;;5.95;;
71360;SDS011;59166;48.908;1.870;2023-06-14T13:34:15;10.37;;;5.70;;
71360;SDS011;59166;48.908;1.870;2023-06-14T13:39:16;9.98;;;5.80;;
71360;SDS011;59166;48.908;1.870;2023-06-14T13:44:17;11.40;;;5.95;;
71360;SDS011;59166;48.908;1.870;2023-06-14T13:49:20;11.50;;;6.00;;
71360;SDS011;59166;48.908;1.870;2023-06-14T13:54:21;9.60;;;6.10;;
71360;SDS011;59166;48.908;1.870;2023-06-14T13:59:21;10.90;;;6.00;;
71360;SDS011;59166;48.908;1.870;2023-06-14T14:04:24;10.00;;;5.80;;
71360;SDS011;59166;48.908;1.870;2023-06-14T14:09:25;9.70;;;5.90;;
71360;SDS011;59166;48.908;1.870;2023-06-14T14:14:26;10.07;;;5.80;;
71360;SDS011;59166;48.908;1.870;2023-06-14T14:19:31;10.10;;;6.10;;
71360;SDS011;59166;48.908;1.870;2023-06-14T14:24:32;11.23;;;5.72;;
71360;SDS011;59166;48.908;1.870;2023-06-14T14:29:33;10.73;;;5.57;;
71360;SDS011;59166;48.908;1.870;2023-06-14T14:34:35;10.20;;;5.75;;
71360;SDS011;59166;48.908;1.870;2023-06-14T14:39:36;9.80;;;5.40;;
71360;SDS011;59166;48.908;1.870;2023-06-14T14:44:37;9.50;;;5.70;;
71360;SDS011;59166;48.908;1.870;2023-06-14T14:49:40;11.18;;;5.70;;
71360;SDS011;59166;48.908;1.870;2023-06-14T14:54:40;10.53;;;5.80;;
71360;SDS011;59166;48.908;1.870;2023-06-14T14:59:41;10.40;;;5.85;;
71360;SDS011;59166;48.908;1.870;2023-06-14T15:04:44;10.43;;;6.00;;
71360;SDS011;59166;48.908;1.870;2023-06-14T15:09:46;9.48;;;6.00;;
71360;SDS011;59166;48.908;1.870;2023-06-14T15:14:47;10.00;;;6.00;;
71360;SDS011;59166;48.908;1.870;2023-06-14T15:19:49;10.23;;;6.20;;
71360;SDS011;59166;48.908;1.870;2023-06-14T15:24:50;10.63;;;5.90;;
71360;SDS011;59166;48.908;1.870;2023-06-14T15:29:51;9.00;;;5.70;;
71360;SDS011;59166;48.908;1.870;2023-06-14T15:34:53;9.40;;;5.63;;
71360;SDS011;59166;48.908;1.870;2023-06-14T15:39:54;9.25;;;5.68;;
71360;SDS011;59166;48.908;1.870;2023-06-14T15:44:55;9.77;;;5.60;;
71360;SDS011;59166;48.908;1.870;2023-06-14T15:49:57;14.68;;;6.13;;
71360;SDS011;59166;48.908;1.870;2023-06-14T15:54:58;11.80;;;6.13;;
71360;SDS011;59166;48.908;1.870;2023-06-14T15:59:59;9.45;;;6.20;;
71360;SDS011;59166;48.908;1.870;2023-06-14T16:05:01;11.00;;;6.13;;
71360;SDS011;59166;48.908;1.870;2023-06-14T16:10:02;9.90;;;6.10;;
71360;SDS011;59166;48.908;1.870;2023-06-14T16:15:04;10.90;;;6.10;;
71360;SDS011;59166;48.908;1.870;2023-06-14T16:20:08;12.63;;;6.00;;
71360;SDS011;59166;48.908;1.870;2023-06-14T16:25:09;17.07;;;6.33;;
71360;SDS011;59166;48.908;1.870;2023-06-14T16:30:10;10.88;;;6.25;;
71360;SDS011;59166;48.908;1.870;2023-06-14T16:35:13;9.90;;;6.63;;
71360;SDS011;59166;48.908;1.870;2023-06-14T16:40:14;9.40;;;6.50;;
71360;SDS011;59166;48.908;1.870;2023-06-14T16:45:15;9.85;;;6.07;;
71360;SDS011;59166;48.908;1.870;2023-06-14T16:50:17;9.93;;;6.20;;
71360;SDS011;59166;48.908;1.870;2023-06-14T16:55:18;10.63;;;6.15;;
71360;SDS011;59166;48.908;1.870;2023-06-14T17:00:19;10.80;;;6.30;;
71360;SDS011;59166;48.908;1.870;2023-06-14T17:05:22;9.60;;;6.30;;
71360;SDS011;59166;48.908;1.870;2023-06-14T17:10:23;11.82;;;6.07;;
71360;SDS011;59166;48.908;1.870;2023-06-14T17:15:24;9.48;;;6.00;;
71360;SDS011;59166;48.908;1.870;2023-06-14T17:20:27;9.33;;;6.13;;
71360;SDS011;59166;48.908;1.870;2023-06-14T17:25:28;10.45;;;5.78;;
71360;SDS011;59166;48.908;1.870;2023-06-14T17:30:29;11.77;;;5.93;;
71360;SDS011;59166;48.908;1.870;2023-06-14T17:35:31;8.63;;;5.50;;
71360;SDS011;59166;48.908;1.870;2023-06-14T17:40:32;10.77;;;6.03;;
71360;SDS011;59166;48.908;1.870;2023-06-14T17:45:33;10.63;;;5.70;;
71360;SDS011;59166;48.908;1.870;2023-06-14T17:50:35;10.93;;;5.82;;
71360;SDS011;59166;48.908;1.870;2023-06-14T17:55:36;9.23;;;5.68;;
71360;SDS011;59166;48.908;1.870;2023-06-14T18:00:37;12.40;;;6.00;;
71360;SDS011;59166;48.908;1.870;2023-06-14T18:05:40;10.18;;;6.00;;
71360;SDS011;59166;48.908;1.870;2023-06-14T18:10:41;10.57;;;6.20;;
71360;SDS011;59166;48.908;1.870;2023-06-14T18:15:42;10.20;;;6.20;;
71360;SDS011;59166;48.908;1.870;2023-06-14T18:20:44;12.07;;;6.40;;
71360;SDS011;59166;48.908;1.870;2023-06-14T18:25:45;11.68;;;6.20;;
71360;SDS011;59166;48.908;1.870;2023-06-14T18:30:46;11.50;;;6.40;;
71360;SDS011;59166;48.908;1.870;2023-06-14T18:35:49;10.07;;;6.22;;
71360;SDS011;59166;48.908;1.870;2023-06-14T18:40:50;13.55;;;6.78;;
71360;SDS011;59166;48.908;1.870;2023-06-14T18:45:51;13.33;;;6.30;;
71360;SDS011;59166;48.908;1.870;2023-06-14T18:50:53;9.77;;;6.20;;
71360;SDS011;59166;48.908;1.870;2023-06-14T18:55:54;11.20;;;6.17;;
71360;SDS011;59166;48.908;1.870;2023-06-14T19:00:55;10.25;;;6.53;;
71360;SDS011;59166;48.908;1.870;2023-06-14T19:06:01;10.38;;;6.20;;
71360;SDS011;59166;48.908;1.870;2023-06-14T19:11:02;10.37;;;6.30;;
71360;SDS011;59166;48.908;1.870;2023-06-14T19:16:04;11.57;;;6.68;;
71360;SDS011;59166;48.908;1.870;2023-06-14T19:21:07;10.75;;;6.32;;
71360;SDS011;59166;48.908;1.870;2023-06-14T19:26:11;9.97;;;6.33;;
71360;SDS011;59166;48.908;1.870;2023-06-14T19:31:12;11.15;;;6.63;;
71360;SDS011;59166;48.908;1.870;2023-06-14T19:36:17;9.82;;;6.40;;
71360;SDS011;59166;48.908;1.870;2023-06-14T19:41:19;11.07;;;6.60;;
71360;SDS011;59166;48.908;1.870;2023-06-14T19:46:23;11.20;;;6.43;;
71360;SDS011;59166;48.908;1.870;2023-06-14T19:51:25;11.85;;;6.55;;
71360;SDS011;59166;48.908;1.870;2023-06-14T19:56:26;11.15;;;6.40;;
71360;SDS011;59166;48.908;1.870;2023-06-14T20:01:27;11.40;;;6.60;;
71360;SDS011;59166;48.908;1.870;2023-06-14T20:06:30;12.90;;;6.50;;
71360;SDS011;59166;48.908;1.870;2023-06-14T20:11:31;19.37;;;6.97;;
71360;SDS011;59166;48.908;1.870;2023-06-14T20:16:34;13.05;;;7.28;;
71360;SDS011;59166;48.908;1.870;2023-06-14T20:21:38;12.38;;;7.50;;
71360;SDS011;59166;48.908;1.870;2023-06-14T20:26:39;12.00;;;7.83;;
71360;SDS011;59166;48.908;1.870;2023-06-14T20:31:40;14.57;;;7.60;;
71360;SDS011;59166;48.908;1.870;2023-06-14T20:36:45;12.60;;;7.27;;
71360;SDS011;59166;48.908;1.870;2023-06-14T20:41:46;11.20;;;7.28;;
71360;SDS011;59166;48.908;1.870;2023-06-14T20:46:48;12.60;;;7.40;;
71360;SDS011;59166;48.908;1.870;2023-06-14T20:51:50;11.30;;;6.90;;
71360;SDS011;59166;48.908;1.870;2023-06-14T20:56:51;10.80;;;6.68;;
71360;SDS011;59166;48.908;1.870;2023-06-14T21:01:52;10.73;;;6.63;;
71360;SDS011;59166;48.908;1.870;2023-06-14T21:06:54;13.40;;;7.20;;
71360;SDS011;59166;48.908;1.870;2023-06-14T21:11:55;10.93;;;7.28;;
71360;SDS011;59166;48.908;1.870;2023-06-14T21:16:57;11.52;;;7.18;;
71360;SDS011;59166;48.908;1.870;2023-06-14T21:21:59;12.93;;;7.57;;
71360;SDS011;59166;48.908;1.870;2023-06-14T21:27:00;11.93;;;7.25;;
71360;SDS011;59166;48.908;1.870;2023-06-14T21:32:02;13.65;;;7.85;;
71360;SDS011;59166;48.908;1.870;2023-06-14T21:37:05;11.53;;;7.83;;
71360;SDS011;59166;48.908;1.870;2023-06-14T21:42:06;11.83;;;7.53;;
71360;SDS011;59166;48.908;1.870;2023-06-14T21:47:07;13.88;;;7.72;;
71360;SDS011;59166;48.908;1.870;2023-06-14T21:52:10;13.88;;;8.40;;
71360;SDS011;59166;48.908;1.870;2023-06-14T21:57:12;14.27;;;9.10;;
71360;SDS011;59166;48.908;1.870;2023-06-14T22:02:13;14.10;;;9.05;;
71360;SDS011;59166;48.908;1.870;2023-06-14T22:07:15;15.43;;;8.95;;
71360;SDS011;59166;48.908;1.870;2023-06-14T22:12:17;14.37;;;8.23;;
71360;SDS011;59166;48.908;1.870;2023-06-14T22:17:18;12.40;;;8.20;;
71360;SDS011;59166;48.908;1.870;2023-06-14T22:22:20;14.35;;;8.18;;
71360;SDS011;59166;48.908;1.870;2023-06-14T22:27:21;13.63;;;7.73;;
71360;SDS011;59166;48.908;1.870;2023-06-14T22:32:23;13.38;;;7.75;;
71360;SDS011;59166;48.908;1.870;2023-06-14T22:37:25;12.60;;;8.02;;
71360;SDS011;59166;48.908;1.870;2023-06-14T22:42:26;13.27;;;8.10;;
71360;SDS011;59166;48.908;1.870;2023-06-14T22:47:27;14.32;;;8.27;;
71360;SDS011;59166;48.908;1.870;2023-06-14T22:52:30;12.60;;;7.80;;
71360;SDS011;59166;48.908;1.870;2023-06-14T22:57:31;13.67;;;8.33;;
71360;SDS011;59166;48.908;1.870;2023-06-14T23:02:31;11.32;;;7.72;;
71360;SDS011;59166;48.908;1.870;2023-06-14T23:07:34;15.33;;;8.40;;
71360;SDS011;59166;48.908;1.870;2023-06-14T23:12:35;13.60;;;8.60;;
71360;SDS011;59166;48.908;1.870;2023-06-14T23:17:39;12.90;;;7.97;;
71360;SDS011;59166;48.908;1.870;2023-06-14T23:22:41;11.90;;;8.00;;
71360;SDS011;59166;48.908;1.870;2023-06-14T23:27:42;12.48;;;7.90;;
71360;SDS011;59166;48.908;1.870;2023-06-14T23:32:43;14.43;;;8.18;;
71360;SDS011;59166;48.908;1.870;2023-06-14T23:37:45;12.40;;;7.70;;
71360;SDS011;59166;48.908;1.870;2023-06-14T23:42:46;14.55;;;7.95;;
71360;SDS011;59166;48.908;1.870;2023-06-14T23:47:47;13.48;;;8.52;;
71360;SDS011;59166;48.908;1.870;2023-06-14T23:52:49;13.80;;;7.63;;
71360;SDS011;59166;48.908;1.870;2023-06-14T23:57:50;13.65;;;8.10;;
